createdAt,value
2019-05-20T00:00:58.837Z,998.36
2019-05-20T00:01:58.837Z,998.37
2019-05-20T00:02:58.809Z,998.39
2019-05-20T00:03:58.796Z,998.36
2019-05-20T00:04:58.785Z,998.40
2019-05-20T00:05:58.816Z,998.40
2019-05-20T00:06:58.750Z,998.37
2019-05-20T00:07:58.739Z,998.39
2019-05-20T00:08:58.723Z,998.37
2019-05-20T00:09:58.706Z,998.34
2019-05-20T00:10:58.698Z,998.32
2019-05-20T00:11:58.679Z,998.34
2019-05-20T00:12:58.667Z,998.32
2019-05-20T00:13:58.668Z,998.33
2019-05-20T00:14:58.641Z,998.28
2019-05-20T00:15:58.619Z,998.31
2019-05-20T00:16:58.610Z,998.29
2019-05-20T00:17:58.596Z,998.27
2019-05-20T00:18:58.577Z,998.26
2019-05-20T00:19:58.560Z,998.26
2019-05-20T00:20:58.550Z,998.27
2019-05-20T00:21:58.536Z,998.25
2019-05-20T00:22:58.519Z,998.25
2019-05-20T00:23:58.511Z,998.21
2019-05-20T00:24:58.488Z,998.24
2019-05-20T00:25:58.477Z,998.22
2019-05-20T00:26:58.461Z,998.20
2019-05-20T00:27:58.443Z,998.23
2019-05-20T00:28:58.432Z,998.19
2019-05-20T00:29:58.419Z,998.22
2019-05-20T00:30:58.402Z,998.24
2019-05-20T00:31:58.384Z,998.21
2019-05-20T00:32:58.371Z,998.25
2019-05-20T00:33:58.358Z,998.24
2019-05-20T00:34:58.345Z,998.23
2019-05-20T00:35:58.325Z,998.20
2019-05-20T00:36:58.314Z,998.16
2019-05-20T00:37:58.301Z,998.22
2019-05-20T00:38:58.283Z,998.17
2019-05-20T00:39:58.272Z,998.19
2019-05-20T00:40:58.254Z,998.16
2019-05-20T00:41:58.244Z,998.18
2019-05-20T00:42:58.225Z,998.21
2019-05-20T00:43:58.215Z,998.18
2019-05-20T00:44:58.196Z,998.21
2019-05-20T00:45:58.181Z,998.17
2019-05-20T00:46:58.164Z,998.14
2019-05-20T00:47:58.153Z,998.13
2019-05-20T00:48:58.136Z,998.13
2019-05-20T00:49:58.120Z,998.13
2019-05-20T00:50:58.111Z,998.11
2019-05-20T00:51:58.085Z,998.08
2019-05-20T00:52:58.073Z,998.09
2019-05-20T00:53:58.058Z,998.10
2019-05-20T00:54:58.058Z,998.07
2019-05-20T00:55:58.030Z,998.11
2019-05-20T00:56:58.018Z,998.08
2019-05-20T00:57:58.000Z,998.09
2019-05-20T00:58:57.984Z,998.09
2019-05-20T00:59:57.971Z,998.06
2019-05-20T01:00:57.954Z,998.06
2019-05-20T01:01:57.937Z,998.02
2019-05-20T01:02:57.934Z,998.01
2019-05-20T01:03:57.908Z,998.04
2019-05-20T01:04:57.895Z,998.04
2019-05-20T01:05:57.885Z,998.08
2019-05-20T01:06:57.865Z,998.06
2019-05-20T01:07:57.850Z,998.06
2019-05-20T01:08:57.836Z,998.08
2019-05-20T01:09:57.823Z,998.09
2019-05-20T01:10:57.819Z,998.11
2019-05-20T01:11:57.791Z,998.10
2019-05-20T01:12:57.776Z,998.10
2019-05-20T01:13:57.760Z,998.09
2019-05-20T01:14:57.749Z,998.07
2019-05-20T01:15:57.735Z,998.06
2019-05-20T01:16:57.715Z,998.07
2019-05-20T01:17:57.701Z,998.08
2019-05-20T01:18:57.687Z,998.05
2019-05-20T01:19:57.705Z,998.09
2019-05-20T01:20:57.671Z,998.05
2019-05-20T01:21:57.640Z,998.05
2019-05-20T01:22:57.625Z,998.07
2019-05-20T01:23:57.609Z,998.08
2019-05-20T01:24:57.595Z,998.06
2019-05-20T01:25:57.580Z,998.11
2019-05-20T01:26:57.570Z,998.09
2019-05-20T01:27:57.552Z,998.06
2019-05-20T01:28:57.535Z,998.12
2019-05-20T01:29:57.521Z,998.15
2019-05-20T01:30:57.506Z,998.19
2019-05-20T01:31:57.499Z,998.20
2019-05-20T01:33:10.951Z,998.23
2019-05-20T01:33:57.457Z,998.24
2019-05-20T01:34:57.443Z,998.28
2019-05-20T01:35:57.429Z,998.30
2019-05-20T01:36:57.414Z,998.28
2019-05-20T01:37:57.401Z,998.27
2019-05-20T01:38:57.383Z,998.30
2019-05-20T01:39:57.374Z,998.28
2019-05-20T01:40:57.358Z,998.29
2019-05-20T01:41:57.347Z,998.25
2019-05-20T01:42:57.321Z,998.23
2019-05-20T01:43:57.312Z,998.25
2019-05-20T01:44:57.293Z,998.24
2019-05-20T01:45:57.277Z,998.25
2019-05-20T01:46:57.261Z,998.26
2019-05-20T01:47:57.249Z,998.29
2019-05-20T01:48:57.231Z,998.30
2019-05-20T01:49:57.216Z,998.29
2019-05-20T01:50:57.207Z,998.32
2019-05-20T01:51:57.187Z,998.30
2019-05-20T01:52:57.170Z,998.29
2019-05-20T01:53:57.158Z,998.33
2019-05-20T01:54:57.141Z,998.31
2019-05-20T01:55:57.126Z,998.36
2019-05-20T01:56:57.116Z,998.35
2019-05-20T01:57:57.098Z,998.35
2019-05-20T01:58:57.081Z,998.35
2019-05-20T01:59:57.067Z,998.35
2019-05-20T02:00:57.050Z,998.37
2019-05-20T02:01:57.037Z,998.34
2019-05-20T02:02:57.025Z,998.37
2019-05-20T02:03:57.006Z,998.36
2019-05-20T02:04:56.988Z,998.35
2019-05-20T02:05:56.980Z,998.37
2019-05-20T02:06:56.959Z,998.38
2019-05-20T02:07:56.948Z,998.36
2019-05-20T02:08:56.928Z,998.39
2019-05-20T02:09:56.912Z,998.42
2019-05-20T02:10:57.026Z,998.39
2019-05-20T02:11:56.890Z,998.36
2019-05-20T02:12:56.868Z,998.40
2019-05-20T02:13:56.855Z,998.37
2019-05-20T02:14:56.838Z,998.38
2019-05-20T02:15:56.831Z,998.38
2019-05-20T02:16:56.806Z,998.42
2019-05-20T02:17:56.792Z,998.42
2019-05-20T02:18:56.780Z,998.42
2019-05-20T02:19:56.763Z,998.42
2019-05-20T02:20:56.752Z,998.45
2019-05-20T02:21:56.735Z,998.41
2019-05-20T02:22:56.714Z,998.42
2019-05-20T02:23:56.704Z,998.42
2019-05-20T02:24:56.688Z,998.37
2019-05-20T02:25:56.667Z,998.33
2019-05-20T02:26:56.653Z,998.37
2019-05-20T02:27:56.639Z,998.37
2019-05-20T02:28:56.623Z,998.36
2019-05-20T02:29:56.608Z,998.35
2019-05-20T02:30:57.160Z,998.32
2019-05-20T02:31:56.578Z,998.33
2019-05-20T02:32:56.564Z,998.36
2019-05-20T02:33:56.549Z,998.35
2019-05-20T02:34:56.533Z,998.40
2019-05-20T02:35:56.518Z,998.34
2019-05-20T02:36:56.508Z,998.34
2019-05-20T02:37:56.489Z,998.34
2019-05-20T02:38:56.493Z,998.31
2019-05-20T02:39:56.457Z,998.29
2019-05-20T02:40:56.452Z,998.30
2019-05-20T02:41:56.437Z,998.24
2019-05-20T02:42:56.413Z,998.26
2019-05-20T02:43:56.391Z,998.22
2019-05-20T02:44:56.376Z,998.21
2019-05-20T02:45:56.371Z,998.17
2019-05-20T02:46:56.347Z,998.17
2019-05-20T02:47:56.330Z,998.16
2019-05-20T02:48:56.316Z,998.14
2019-05-20T02:49:56.300Z,998.12
2019-05-20T02:50:56.289Z,998.10
2019-05-20T02:51:56.269Z,998.09
2019-05-20T02:52:56.262Z,998.13
2019-05-20T02:53:56.245Z,998.17
2019-05-20T02:54:56.228Z,998.20
2019-05-20T02:55:56.207Z,998.29
2019-05-20T02:56:56.198Z,998.31
2019-05-20T02:57:56.190Z,998.30
2019-05-20T02:58:56.165Z,998.33
2019-05-20T02:59:56.145Z,998.33
2019-05-20T03:00:56.132Z,998.33
2019-05-20T03:01:56.117Z,998.33
2019-05-20T03:02:56.109Z,998.35
2019-05-20T03:04:10.772Z,998.35
2019-05-20T03:04:56.073Z,998.36
2019-05-20T03:05:56.055Z,998.33
2019-05-20T03:06:56.122Z,998.35
2019-05-20T03:07:56.020Z,998.36
2019-05-20T03:08:56.011Z,998.34
2019-05-20T03:09:55.999Z,998.38
2019-05-20T03:10:55.977Z,998.38
2019-05-20T03:11:55.962Z,998.38
2019-05-20T03:12:55.945Z,998.42
2019-05-20T03:13:55.938Z,998.39
2019-05-20T03:14:55.916Z,998.41
2019-05-20T03:15:55.899Z,998.43
2019-05-20T03:16:55.883Z,998.46
2019-05-20T03:17:55.868Z,998.48
2019-05-20T03:18:55.856Z,998.50
2019-05-20T03:19:55.839Z,998.54
2019-05-20T03:20:55.832Z,998.52
2019-05-20T03:21:55.812Z,998.51
2019-05-20T03:22:55.793Z,998.49
2019-05-20T03:23:55.775Z,998.49
2019-05-20T03:24:55.764Z,998.54
2019-05-20T03:25:55.749Z,998.53
2019-05-20T03:26:55.730Z,998.53
2019-05-20T03:27:55.713Z,998.53
2019-05-20T03:28:55.696Z,998.52
2019-05-20T03:29:55.678Z,998.53
2019-05-20T03:30:55.665Z,998.52
2019-05-20T03:31:55.654Z,998.51
2019-05-20T03:32:55.634Z,998.48
2019-05-20T03:33:55.633Z,998.50
2019-05-20T03:35:00.000Z,998.48
2019-05-20T03:35:55.593Z,998.48
2019-05-20T03:36:55.572Z,998.47
2019-05-20T03:37:55.556Z,998.46
2019-05-20T03:38:55.540Z,998.45
2019-05-20T03:39:55.521Z,998.45
2019-05-20T03:40:55.510Z,998.44
2019-05-20T03:41:55.494Z,998.48
2019-05-20T03:42:55.483Z,998.50
2019-05-20T03:43:55.462Z,998.49
2019-05-20T03:44:55.445Z,998.51
2019-05-20T03:45:55.434Z,998.55
2019-05-20T03:46:55.415Z,998.53
2019-05-20T03:47:55.401Z,998.55
2019-05-20T03:48:55.384Z,998.59
2019-05-20T03:49:55.367Z,998.57
2019-05-20T03:50:55.353Z,998.54
2019-05-20T03:51:55.337Z,998.55
2019-05-20T03:52:55.321Z,998.58
2019-05-20T03:53:55.313Z,998.58
2019-05-20T03:54:55.290Z,998.54
2019-05-20T03:55:55.274Z,998.54
2019-05-20T03:56:55.266Z,998.58
2019-05-20T03:57:55.241Z,998.56
2019-05-20T03:58:55.227Z,998.58
2019-05-20T03:59:55.208Z,998.60
2019-05-20T04:00:55.194Z,998.58
2019-05-20T04:01:55.189Z,998.56
2019-05-20T04:02:55.165Z,998.59
2019-05-20T04:03:55.163Z,998.61
2019-05-20T04:05:02.320Z,998.59
2019-05-20T04:05:55.122Z,998.58
2019-05-20T04:06:55.104Z,998.65
2019-05-20T04:07:55.084Z,998.66
2019-05-20T04:08:55.072Z,998.65
2019-05-20T04:09:55.065Z,998.68
2019-05-20T04:10:55.056Z,998.72
2019-05-20T04:11:55.037Z,998.73
2019-05-20T04:12:55.025Z,998.70
2019-05-20T04:13:54.999Z,998.74
2019-05-20T04:14:54.983Z,998.71
2019-05-20T04:15:54.961Z,998.68
2019-05-20T04:16:54.945Z,998.68
2019-05-20T04:17:54.934Z,998.71
2019-05-20T04:18:54.924Z,998.74
2019-05-20T04:19:54.896Z,998.71
2019-05-20T04:20:54.885Z,998.75
2019-05-20T04:21:54.876Z,998.76
2019-05-20T04:22:54.851Z,998.78
2019-05-20T04:23:54.835Z,998.83
2019-05-20T04:24:54.829Z,998.82
2019-05-20T04:25:54.810Z,998.81
2019-05-20T04:26:54.794Z,998.82
2019-05-20T04:27:54.776Z,998.85
2019-05-20T04:28:54.757Z,998.83
2019-05-20T04:29:54.741Z,998.82
2019-05-20T04:30:54.728Z,998.83
2019-05-20T04:31:54.717Z,998.84
2019-05-20T04:32:54.704Z,998.77
2019-05-20T04:33:54.679Z,998.79
2019-05-20T04:34:54.663Z,998.76
2019-05-20T04:35:54.650Z,998.77
2019-05-20T04:36:54.636Z,998.74
2019-05-20T04:37:54.620Z,998.79
2019-05-20T04:38:54.607Z,998.77
2019-05-20T04:39:54.581Z,998.72
2019-05-20T04:40:54.571Z,998.73
2019-05-20T04:41:54.563Z,998.73
2019-05-20T04:42:54.539Z,998.71
2019-05-20T04:43:54.527Z,998.69
2019-05-20T04:44:54.509Z,998.66
2019-05-20T04:45:54.492Z,998.67
2019-05-20T04:46:57.724Z,998.64
2019-05-20T04:47:54.469Z,998.62
2019-05-20T04:48:54.441Z,998.62
2019-05-20T04:49:54.429Z,998.60
2019-05-20T04:50:54.412Z,998.61
2019-05-20T04:51:54.399Z,998.63
2019-05-20T04:52:54.381Z,998.64
2019-05-20T04:53:54.364Z,998.68
2019-05-20T04:54:54.351Z,998.68
2019-05-20T04:55:54.333Z,998.74
2019-05-20T04:56:54.322Z,998.80
2019-05-20T04:57:54.306Z,998.82
2019-05-20T04:58:54.291Z,998.84
2019-05-20T04:59:54.272Z,998.88
2019-05-20T05:00:54.275Z,998.89
2019-05-20T05:01:54.240Z,998.89
2019-05-20T05:02:54.223Z,998.91
2019-05-20T05:03:54.215Z,998.92
2019-05-20T05:04:54.193Z,998.93
2019-05-20T05:05:54.177Z,998.96
2019-05-20T05:06:54.162Z,998.98
2019-05-20T05:07:54.154Z,999.01
2019-05-20T05:08:54.128Z,999.02
2019-05-20T05:09:54.117Z,999.03
2019-05-20T05:10:54.109Z,999.04
2019-05-20T05:11:54.090Z,999.02
2019-05-20T05:12:54.088Z,999.02
2019-05-20T05:13:54.051Z,999.01
2019-05-20T05:14:54.089Z,999.02
2019-05-20T05:15:54.019Z,998.98
2019-05-20T05:16:54.008Z,998.97
2019-05-20T05:17:53.992Z,998.95
2019-05-20T05:18:53.982Z,998.95
2019-05-20T05:19:53.969Z,998.91
2019-05-20T05:20:53.943Z,998.92
2019-05-20T05:21:53.932Z,998.91
2019-05-20T05:22:53.921Z,998.94
2019-05-20T05:23:59.160Z,998.96
2019-05-20T05:24:53.886Z,998.98
2019-05-20T05:25:53.868Z,999.00
2019-05-20T05:26:53.850Z,998.98
2019-05-20T05:27:53.847Z,998.99
2019-05-20T05:28:53.828Z,999.00
2019-05-20T05:29:53.806Z,999.02
2019-05-20T05:30:53.790Z,998.97
2019-05-20T05:31:53.773Z,999.02
2019-05-20T05:32:53.763Z,998.95
2019-05-20T05:33:54.464Z,998.97
2019-05-20T05:34:53.739Z,998.97
2019-05-20T05:35:53.928Z,998.98
2019-05-20T05:36:53.698Z,999.01
2019-05-20T05:37:53.963Z,999.02
2019-05-20T05:38:53.669Z,998.98
2019-05-20T05:39:53.654Z,999.01
2019-05-20T05:40:53.638Z,999.02
2019-05-20T05:41:53.623Z,999.02
2019-05-20T05:42:53.616Z,999.01
2019-05-20T05:43:53.605Z,999.03
2019-05-20T05:44:53.580Z,999.03
2019-05-20T05:45:53.570Z,999.03
2019-05-20T05:46:53.577Z,999.02
2019-05-20T05:47:53.541Z,999.06
2019-05-20T05:48:53.527Z,999.06
2019-05-20T05:49:53.510Z,999.05
2019-05-20T05:50:53.491Z,999.08
2019-05-20T05:51:53.480Z,999.09
2019-05-20T05:52:53.464Z,999.09
2019-05-20T05:53:53.445Z,999.11
2019-05-20T05:54:53.430Z,999.15
2019-05-20T05:55:53.423Z,999.13
2019-05-20T05:56:53.400Z,999.12
2019-05-20T05:57:53.381Z,999.12
2019-05-20T05:58:53.379Z,999.10
2019-05-20T05:59:53.355Z,999.08
2019-05-20T06:00:53.346Z,999.10
2019-05-20T06:01:53.331Z,999.10
2019-05-20T06:02:53.313Z,999.08
2019-05-20T06:03:53.293Z,999.11
2019-05-20T06:04:53.284Z,999.05
2019-05-20T06:06:10.306Z,999.08
2019-05-20T06:06:53.247Z,999.09
2019-05-20T06:07:53.252Z,999.06
2019-05-20T06:08:53.224Z,999.08
2019-05-20T06:09:53.201Z,999.06
2019-05-20T06:10:53.186Z,999.07
2019-05-20T06:11:53.169Z,999.04
2019-05-20T06:12:53.157Z,999.06
2019-05-20T06:13:53.152Z,999.10
2019-05-20T06:14:53.146Z,999.09
2019-05-20T06:15:54.696Z,999.08
2019-05-20T06:16:53.097Z,999.07
2019-05-20T06:17:53.085Z,999.08
2019-05-20T06:18:53.064Z,999.11
2019-05-20T06:19:53.062Z,999.12
2019-05-20T06:20:53.034Z,999.13
2019-05-20T06:21:53.023Z,999.14
2019-05-20T06:22:53.003Z,999.15
2019-05-20T06:23:52.992Z,999.13
2019-05-20T06:24:52.990Z,999.15
2019-05-20T06:25:52.965Z,999.11
2019-05-20T06:26:52.943Z,999.15
2019-05-20T06:27:52.929Z,999.16
2019-05-20T06:28:52.922Z,999.14
2019-05-20T06:29:52.899Z,999.17
2019-05-20T06:30:52.889Z,999.18
2019-05-20T06:31:52.870Z,999.18
2019-05-20T06:32:52.852Z,999.23
2019-05-20T06:33:52.842Z,999.24
2019-05-20T06:34:52.828Z,999.21
2019-05-20T06:35:52.807Z,999.25
2019-05-20T06:36:52.790Z,999.28
2019-05-20T06:37:52.777Z,999.27
2019-05-20T06:38:52.765Z,999.31
2019-05-20T06:39:52.772Z,999.28
2019-05-20T06:40:52.732Z,999.35
2019-05-20T06:41:52.721Z,999.32
2019-05-20T06:42:52.700Z,999.29
2019-05-20T06:43:52.692Z,999.33
2019-05-20T06:44:56.652Z,999.30
2019-05-20T06:45:52.654Z,999.31
2019-05-20T06:46:52.641Z,999.27
2019-05-20T06:47:52.630Z,999.30
2019-05-20T06:48:52.649Z,999.32
2019-05-20T06:49:52.602Z,999.29
2019-05-20T06:50:52.594Z,999.40
2019-05-20T06:51:52.564Z,999.40
2019-05-20T06:52:52.593Z,999.39
2019-05-20T06:53:52.539Z,999.42
2019-05-20T06:54:52.534Z,999.42
2019-05-20T06:55:52.509Z,999.42
2019-05-20T06:56:52.692Z,999.42
2019-05-20T06:57:52.484Z,999.43
2019-05-20T06:58:52.467Z,999.42
2019-05-20T06:59:52.445Z,999.41
2019-05-20T07:00:52.442Z,999.43
2019-05-20T07:01:52.415Z,999.43
2019-05-20T07:02:52.405Z,999.44
2019-05-20T07:03:52.388Z,999.49
2019-05-20T07:04:52.374Z,999.48
2019-05-20T07:05:52.355Z,999.52
2019-05-20T07:06:52.344Z,999.52
2019-05-20T07:07:52.334Z,999.53
2019-05-20T07:08:52.316Z,999.52
2019-05-20T07:09:52.296Z,999.50
2019-05-20T07:10:52.284Z,999.50
2019-05-20T07:11:53.287Z,999.54
2019-05-20T07:12:52.256Z,999.55
2019-05-20T07:13:52.236Z,999.57
2019-05-20T07:14:52.218Z,999.61
2019-05-20T07:15:52.215Z,999.62
2019-05-20T07:16:52.195Z,999.62
2019-05-20T07:17:52.177Z,999.65
2019-05-20T07:18:52.167Z,999.69
2019-05-20T07:19:52.145Z,999.73
2019-05-20T07:20:52.132Z,999.70
2019-05-20T07:21:52.116Z,999.75
2019-05-20T07:22:56.010Z,999.75
2019-05-20T07:23:52.539Z,999.76
2019-05-20T07:24:52.074Z,999.78
2019-05-20T07:25:52.055Z,999.76
2019-05-20T07:26:52.045Z,999.79
2019-05-20T07:27:52.026Z,999.76
2019-05-20T07:28:52.014Z,999.77
2019-05-20T07:29:52.002Z,999.73
2019-05-20T07:30:51.985Z,999.78
2019-05-20T07:31:51.966Z,999.73
2019-05-20T07:32:51.951Z,999.74
2019-05-20T07:33:51.937Z,999.71
2019-05-20T07:34:51.933Z,999.71
2019-05-20T07:35:51.913Z,999.70
2019-05-20T07:37:02.515Z,999.68
2019-05-20T07:37:51.876Z,999.69
2019-05-20T07:38:51.869Z,999.65
2019-05-20T07:39:51.857Z,999.68
2019-05-20T07:40:51.832Z,999.68
2019-05-20T07:41:51.825Z,999.67
2019-05-20T07:42:51.806Z,999.70
2019-05-20T07:43:51.787Z,999.67
2019-05-20T07:44:51.777Z,999.69
2019-05-20T07:45:51.758Z,999.70
2019-05-20T07:46:51.748Z,999.72
2019-05-20T07:47:51.729Z,999.70
2019-05-20T07:48:51.815Z,999.71
2019-05-20T07:49:51.708Z,999.75
2019-05-20T07:50:51.692Z,999.69
2019-05-20T07:51:51.668Z,999.72
2019-05-20T07:52:51.677Z,999.69
2019-05-20T07:53:51.674Z,999.68
2019-05-20T07:54:51.632Z,999.68
2019-05-20T07:55:51.614Z,999.66
2019-05-20T07:56:51.596Z,999.70
2019-05-20T07:57:51.580Z,999.67
2019-05-20T07:58:51.565Z,999.66
2019-05-20T07:59:51.561Z,999.69
2019-05-20T08:00:51.544Z,999.68
2019-05-20T08:01:51.524Z,999.71
2019-05-20T08:02:51.508Z,999.71
2019-05-20T08:03:51.494Z,999.73
2019-05-20T08:04:51.520Z,999.75
2019-05-20T08:05:51.464Z,999.75
2019-05-20T08:06:51.447Z,999.76
2019-05-20T08:07:52.827Z,999.78
2019-05-20T08:08:51.422Z,999.80
2019-05-20T08:09:51.404Z,999.82
2019-05-20T08:10:51.390Z,999.80
2019-05-20T08:11:51.381Z,999.81
2019-05-20T08:12:51.371Z,999.82
2019-05-20T08:13:51.343Z,999.85
2019-05-20T08:14:51.329Z,999.85
2019-05-20T08:15:51.314Z,999.83
2019-05-20T08:16:51.306Z,999.82
2019-05-20T08:17:51.292Z,999.84
2019-05-20T08:18:51.281Z,999.84
2019-05-20T08:19:51.267Z,999.84
2019-05-20T08:20:51.242Z,999.87
2019-05-20T08:21:51.228Z,999.89
2019-05-20T08:22:51.213Z,999.91
2019-05-20T08:23:51.199Z,999.92
2019-05-20T08:24:51.192Z,999.92
2019-05-20T08:25:51.168Z,999.96
2019-05-20T08:26:51.156Z,999.99
2019-05-20T08:27:51.145Z,999.98
2019-05-20T08:28:51.122Z,999.97
2019-05-20T08:29:51.118Z,999.98
2019-05-20T08:30:51.139Z,999.97
2019-05-20T08:31:51.082Z,999.96
2019-05-20T08:32:51.069Z,999.96
2019-05-20T08:33:51.056Z,999.95
2019-05-20T08:34:51.041Z,999.97
2019-05-20T08:35:51.034Z,999.98
2019-05-20T08:36:51.011Z,999.98
2019-05-20T08:37:50.998Z,999.98
2019-05-20T08:38:50.982Z,1000.02
2019-05-20T08:39:50.964Z,1000.02
2019-05-20T08:40:50.953Z,1000.00
2019-05-20T08:41:50.938Z,999.98
2019-05-20T08:42:50.922Z,1000.07
2019-05-20T08:43:50.906Z,1000.03
2019-05-20T08:44:50.893Z,1000.06
2019-05-20T08:45:50.884Z,1000.06
2019-05-20T08:46:50.862Z,1000.05
2019-05-20T08:47:50.850Z,1000.05
2019-05-20T08:48:50.973Z,1000.09
2019-05-20T08:49:51.017Z,1000.06
2019-05-20T08:50:50.805Z,1000.08
2019-05-20T08:51:50.791Z,1000.05
2019-05-20T08:52:50.815Z,1000.03
2019-05-20T08:53:50.780Z,1000.04
2019-05-20T08:54:50.747Z,1000.05
2019-05-20T08:55:50.755Z,1000.01
2019-05-20T08:56:50.724Z,1000.03
2019-05-20T08:57:50.716Z,999.98
2019-05-20T08:58:50.695Z,1000.01
2019-05-20T08:59:50.676Z,999.99
2019-05-20T09:00:50.668Z,999.99
2019-05-20T09:01:50.674Z,1000.01
2019-05-20T09:02:50.641Z,999.99
2019-05-20T09:03:50.622Z,999.98
2019-05-20T09:04:50.627Z,999.96
2019-05-20T09:05:50.593Z,999.99
2019-05-20T09:06:50.582Z,1000.00
2019-05-20T09:08:02.081Z,1000.01
2019-05-20T09:08:50.559Z,1000.03
2019-05-20T09:09:50.539Z,1000.01
2019-05-20T09:10:50.528Z,999.99
2019-05-20T09:11:50.521Z,1000.08
2019-05-20T09:12:50.503Z,1000.07
2019-05-20T09:13:50.481Z,1000.10
2019-05-20T09:14:50.479Z,1000.08
2019-05-20T09:15:50.454Z,1000.08
2019-05-20T09:16:50.438Z,1000.08
2019-05-20T09:17:50.433Z,1000.06
2019-05-20T09:18:50.469Z,1000.04
2019-05-20T09:19:50.400Z,1000.03
2019-05-20T09:20:50.391Z,1000.04
2019-05-20T09:21:50.381Z,1000.05
2019-05-20T09:22:50.393Z,1000.03
2019-05-20T09:23:50.344Z,1000.01
2019-05-20T09:24:50.637Z,1000.05
2019-05-20T09:25:50.316Z,1000.01
2019-05-20T09:26:50.308Z,999.98
2019-05-20T09:27:50.288Z,999.99
2019-05-20T09:28:50.275Z,999.96
2019-05-20T09:29:50.261Z,999.98
2019-05-20T09:30:50.255Z,999.95
2019-05-20T09:31:50.252Z,999.95
2019-05-20T09:32:50.241Z,1000.03
2019-05-20T09:33:50.213Z,1000.03
2019-05-20T09:34:50.202Z,1000.06
2019-05-20T09:35:50.219Z,1000.05
2019-05-20T09:36:50.166Z,1000.07
2019-05-20T09:37:50.152Z,1000.05
2019-05-20T09:38:50.145Z,1000.07
2019-05-20T09:39:50.132Z,1000.04
2019-05-20T09:40:50.121Z,1000.00
2019-05-20T09:41:50.097Z,1000.03
2019-05-20T09:42:50.084Z,1000.05
2019-05-20T09:43:50.105Z,1000.04
2019-05-20T09:44:50.083Z,1000.07
2019-05-20T09:46:05.577Z,1000.09
2019-05-20T09:46:50.031Z,1000.10
2019-05-20T09:47:50.014Z,1000.08
2019-05-20T09:48:50.018Z,1000.09
2019-05-20T09:49:49.994Z,1000.09
2019-05-20T09:50:49.976Z,1000.10
2019-05-20T09:51:49.960Z,1000.11
2019-05-20T09:52:49.946Z,1000.15
2019-05-20T09:53:49.934Z,1000.12
2019-05-20T09:54:49.918Z,1000.18
2019-05-20T09:55:49.905Z,1000.18
2019-05-20T09:56:49.902Z,1000.16
2019-05-20T09:57:49.886Z,1000.17
2019-05-20T09:58:49.884Z,1000.20
2019-05-20T09:59:49.853Z,1000.18
2019-05-20T10:00:49.838Z,1000.17
2019-05-20T10:01:50.423Z,1000.16
2019-05-20T10:02:49.812Z,1000.14
2019-05-20T10:03:49.800Z,1000.15
2019-05-20T10:04:49.784Z,1000.21
2019-05-20T10:05:49.776Z,1000.15
2019-05-20T10:06:49.769Z,1000.17
2019-05-20T10:07:49.760Z,1000.23
2019-05-20T10:08:49.737Z,1000.24
2019-05-20T10:09:49.721Z,1000.24
2019-05-20T10:10:49.708Z,1000.22
2019-05-20T10:11:49.725Z,1000.24
2019-05-20T10:12:49.676Z,1000.25
2019-05-20T10:13:49.678Z,1000.27
2019-05-20T10:14:52.789Z,1000.26
2019-05-20T10:15:49.679Z,1000.29
2019-05-20T10:16:49.625Z,1000.27
2019-05-20T10:17:49.621Z,1000.31
2019-05-20T10:18:49.596Z,1000.30
2019-05-20T10:19:49.580Z,1000.30
2019-05-20T10:20:49.582Z,1000.33
2019-05-20T10:21:49.554Z,1000.33
2019-05-20T10:22:49.543Z,1000.34
2019-05-20T10:23:49.528Z,1000.34
2019-05-20T10:24:49.513Z,1000.35
2019-05-20T10:25:49.502Z,1000.33
2019-05-20T10:26:49.487Z,1000.34
2019-05-20T10:27:49.479Z,1000.36
2019-05-20T10:28:49.462Z,1000.39
2019-05-20T10:29:49.469Z,1000.41
2019-05-20T10:30:49.439Z,1000.38
2019-05-20T10:31:49.418Z,1000.40
2019-05-20T10:32:49.407Z,1000.37
2019-05-20T10:33:49.402Z,1000.37
2019-05-20T10:34:49.384Z,1000.35
2019-05-20T10:35:49.369Z,1000.37
2019-05-20T10:36:49.353Z,1000.32
2019-05-20T10:37:49.341Z,1000.33
2019-05-20T10:38:58.757Z,1000.31
2019-05-20T10:39:49.305Z,1000.26
2019-05-20T10:40:49.313Z,1000.29
2019-05-20T10:41:49.283Z,1000.27
2019-05-20T10:42:49.270Z,1000.25
2019-05-20T10:43:49.256Z,1000.25
2019-05-20T10:44:49.240Z,1000.26
2019-05-20T10:45:49.225Z,1000.24
2019-05-20T10:46:49.228Z,1000.26
2019-05-20T10:47:49.200Z,1000.24
2019-05-20T10:48:49.211Z,1000.26
2019-05-20T10:49:49.170Z,1000.28
2019-05-20T10:50:49.160Z,1000.30
2019-05-20T10:51:49.143Z,1000.29
2019-05-20T10:52:49.187Z,1000.29
2019-05-20T10:53:49.116Z,1000.30
2019-05-20T10:54:49.110Z,1000.31
2019-05-20T10:55:49.087Z,1000.34
2019-05-20T10:56:49.075Z,1000.41
2019-05-20T10:57:49.066Z,1000.37
2019-05-20T10:58:49.050Z,1000.42
2019-05-20T10:59:49.095Z,1000.42
2019-05-20T11:01:01.752Z,1000.41
2019-05-20T11:01:49.010Z,1000.45
2019-05-20T11:02:48.996Z,1000.47
2019-05-20T11:03:48.989Z,1000.43
2019-05-20T11:04:48.979Z,1000.41
2019-05-20T11:05:48.954Z,1000.34
2019-05-20T11:06:48.950Z,1000.45
2019-05-20T11:07:48.953Z,1000.43
2019-05-20T11:08:48.918Z,1000.46
2019-05-20T11:09:48.918Z,1000.45
2019-05-20T11:10:48.897Z,1000.46
2019-05-20T11:11:48.879Z,1000.48
2019-05-20T11:12:48.864Z,1000.47
2019-05-20T11:13:48.862Z,1000.51
2019-05-20T11:14:48.844Z,1000.44
2019-05-20T11:15:48.834Z,1000.47
2019-05-20T11:16:48.813Z,1000.49
2019-05-20T11:17:48.795Z,1000.50
2019-05-20T11:18:48.788Z,1000.49
2019-05-20T11:19:48.770Z,1000.48
2019-05-20T11:20:48.759Z,1000.52
2019-05-20T11:21:48.742Z,1000.54
2019-05-20T11:22:48.791Z,1000.53
2019-05-20T11:23:48.713Z,1000.56
2019-05-20T11:24:48.701Z,1000.52
2019-05-20T11:25:48.686Z,1000.56
2019-05-20T11:26:48.676Z,1000.52
2019-05-20T11:27:48.694Z,1000.56
2019-05-20T11:28:48.652Z,1000.55
2019-05-20T11:29:48.633Z,1000.52
2019-05-20T11:30:48.616Z,1000.52
2019-05-20T11:31:48.612Z,1000.52
2019-05-20T11:32:48.599Z,1000.53
2019-05-20T11:33:48.578Z,1000.52
2019-05-20T11:34:48.570Z,1000.51
2019-05-20T11:35:48.548Z,1000.52
2019-05-20T11:36:48.538Z,1000.49
2019-05-20T11:37:48.519Z,1000.47
2019-05-20T11:38:48.506Z,1000.49
2019-05-20T11:39:48.499Z,1000.48
2019-05-20T11:40:48.478Z,1000.49
2019-05-20T11:41:53.366Z,1000.50
2019-05-20T11:42:48.455Z,1000.50
2019-05-20T11:43:48.438Z,1000.48
2019-05-20T11:44:48.425Z,1000.50
2019-05-20T11:45:48.413Z,1000.51
2019-05-20T11:46:48.406Z,1000.57
2019-05-20T11:47:48.383Z,1000.55
2019-05-20T11:48:48.368Z,1000.56
2019-05-20T11:49:48.360Z,1000.53
2019-05-20T11:50:48.343Z,1000.53
2019-05-20T11:51:48.336Z,1000.51
2019-05-20T11:52:48.318Z,1000.52
2019-05-20T11:53:48.301Z,1000.53
2019-05-20T11:54:48.290Z,1000.55
2019-05-20T11:55:48.284Z,1000.53
2019-05-20T11:56:48.267Z,1000.54
2019-05-20T11:57:48.256Z,1000.57
2019-05-20T11:58:48.241Z,1000.54
2019-05-20T11:59:48.225Z,1000.58
2019-05-20T12:00:48.219Z,1000.58
2019-05-20T12:01:48.200Z,1000.59
2019-05-20T12:02:48.183Z,1000.56
2019-05-20T12:03:48.171Z,1000.55
2019-05-20T12:04:48.173Z,1000.56
2019-05-20T12:05:48.264Z,1000.57
2019-05-20T12:06:48.135Z,1000.55
2019-05-20T12:07:48.118Z,1000.54
2019-05-20T12:08:48.101Z,1000.55
2019-05-20T12:09:50.129Z,1000.55
2019-05-20T12:10:48.094Z,1000.51
2019-05-20T12:11:48.062Z,1000.49
2019-05-20T12:12:48.044Z,1000.47
2019-05-20T12:13:48.054Z,1000.45
2019-05-20T12:14:48.104Z,1000.45
2019-05-20T12:15:48.004Z,1000.45
2019-05-20T12:16:47.991Z,1000.44
2019-05-20T12:17:47.982Z,1000.40
2019-05-20T12:18:47.965Z,1000.40
2019-05-20T12:19:47.950Z,1000.42
2019-05-20T12:20:47.939Z,1000.41
2019-05-20T12:21:47.927Z,1000.42